createdAt,value
2023-05-21T00:00:43.181Z,9.00
2023-05-21T00:03:46.273Z,9.88
2023-05-21T00:06:47.963Z,8.73
2023-05-21T00:09:49.538Z,10.85
2023-05-21T00:12:51.095Z,12.27
2023-05-21T00:15:52.692Z,11.02
2023-05-21T00:18:55.264Z,10.80
2023-05-21T00:21:57.685Z,10.82
2023-05-21T00:24:59.749Z,11.68
2023-05-21T00:28:01.313Z,10.77
2023-05-21T00:31:02.897Z,10.60
2023-05-21T00:34:04.518Z,11.13
2023-05-21T00:37:06.272Z,10.75
2023-05-21T00:40:09.264Z,10.23
2023-05-21T00:43:10.763Z,10.38
2023-05-21T00:46:16.727Z,10.82
2023-05-21T00:49:18.944Z,10.70
2023-05-21T00:52:21.587Z,11.45
2023-05-21T00:55:23.352Z,11.35
2023-05-21T00:58:25.132Z,11.05
2023-05-21T01:01:26.922Z,10.10
2023-05-21T01:04:28.941Z,10.75
2023-05-21T01:07:30.716Z,10.30
2023-05-21T01:10:32.564Z,9.98
2023-05-21T01:13:38.962Z,10.82
2023-05-21T01:16:42.676Z,11.52
2023-05-21T01:19:44.769Z,10.88
2023-05-21T01:22:52.106Z,11.38
2023-05-21T01:25:53.706Z,11.13
2023-05-21T01:28:55.222Z,11.15
2023-05-21T01:32:16.363Z,11.90
2023-05-21T01:35:26.207Z,11.68
2023-05-21T01:38:43.723Z,11.35
2023-05-21T01:41:46.180Z,10.63
2023-05-21T01:44:49.193Z,12.10
2023-05-21T01:47:54.002Z,12.13
2023-05-21T01:50:59.356Z,11.38
2023-05-21T01:54:01.614Z,11.55
2023-05-21T01:57:03.818Z,11.45
2023-05-21T02:00:06.263Z,11.30
2023-05-21T02:03:18.466Z,11.20
2023-05-21T02:06:20.083Z,11.30
2023-05-21T02:09:21.635Z,10.90
2023-05-21T02:12:23.464Z,10.85
2023-05-21T02:15:25.760Z,11.43
2023-05-21T02:18:29.308Z,12.45
2023-05-21T02:21:31.207Z,12.80
2023-05-21T02:24:33.168Z,11.50
2023-05-21T02:27:38.944Z,13.73
2023-05-21T02:30:40.529Z,13.30
2023-05-21T02:33:42.140Z,12.98
2023-05-21T02:36:43.755Z,13.85
2023-05-21T02:39:45.870Z,12.77
2023-05-21T02:42:47.503Z,13.07
2023-05-21T02:45:54.460Z,13.65
2023-05-21T02:48:56.356Z,14.30
2023-05-21T02:51:58.069Z,13.85
2023-05-21T02:54:59.607Z,13.52
2023-05-21T02:58:01.204Z,13.18
2023-05-21T03:01:02.798Z,14.15
2023-05-21T03:04:04.654Z,14.77
2023-05-21T03:07:06.323Z,14.43
2023-05-21T03:10:08.150Z,14.63
2023-05-21T03:13:10.063Z,14.95
2023-05-21T03:16:12.345Z,14.90
2023-05-21T03:19:13.918Z,15.82
2023-05-21T03:22:15.951Z,15.02
2023-05-21T03:25:17.519Z,14.65
2023-05-21T03:28:19.203Z,14.93
2023-05-21T03:31:23.889Z,15.15
2023-05-21T03:34:38.116Z,15.95
2023-05-21T03:37:39.696Z,17.25
2023-05-21T03:40:41.304Z,18.30
2023-05-21T03:43:42.906Z,16.77
2023-05-21T03:46:45.662Z,16.58
2023-05-21T03:49:56.811Z,16.65
2023-05-21T03:52:58.488Z,15.77
2023-05-21T03:56:00.008Z,16.33
2023-05-21T03:59:01.836Z,17.05
2023-05-21T04:02:05.047Z,18.58
2023-05-21T04:05:07.136Z,17.65
2023-05-21T04:08:09.040Z,16.50
2023-05-21T04:11:11.300Z,17.23
2023-05-21T04:14:13.153Z,17.98
2023-05-21T04:17:14.720Z,16.15
2023-05-21T04:20:17.035Z,16.77
2023-05-21T04:23:19.244Z,17.60
2023-05-21T04:26:21.237Z,15.60
2023-05-21T04:29:22.958Z,14.73
2023-05-21T04:32:25.348Z,16.02
2023-05-21T04:35:27.209Z,16.25
2023-05-21T04:38:28.753Z,15.40
2023-05-21T04:41:30.336Z,16.67
2023-05-21T04:44:31.940Z,15.13
2023-05-21T04:47:35.589Z,17.40
2023-05-21T04:50:39.002Z,17.83
2023-05-21T04:53:40.529Z,17.13
2023-05-21T04:56:42.532Z,17.27
2023-05-21T04:59:44.121Z,17.17
2023-05-21T05:02:46.368Z,16.40
2023-05-21T05:05:48.042Z,18.15
2023-05-21T05:08:49.565Z,16.13
2023-05-21T05:11:51.669Z,17.15
2023-05-21T05:14:53.347Z,16.35
2023-05-21T05:17:55.008Z,17.08
2023-05-21T05:20:56.624Z,18.70
2023-05-21T05:23:58.980Z,17.70
2023-05-21T05:27:03.273Z,18.23
2023-05-21T05:30:05.878Z,18.70
2023-05-21T05:33:07.776Z,19.23
2023-05-21T05:36:09.497Z,18.42
2023-05-21T05:39:11.831Z,17.85
2023-05-21T05:42:14.320Z,19.17
2023-05-21T05:45:16.080Z,21.35
2023-05-21T05:48:17.734Z,18.15
2023-05-21T05:51:19.294Z,19.25
2023-05-21T05:54:20.985Z,20.13
2023-05-21T05:57:22.621Z,19.80
2023-05-21T06:00:26.818Z,20.50
2023-05-21T06:03:29.789Z,20.95
2023-05-21T06:06:34.716Z,20.60
2023-05-21T06:09:36.483Z,21.80
2023-05-21T06:12:38.476Z,22.98
2023-05-21T06:15:43.164Z,23.13
2023-05-21T06:21:46.633Z,22.58
2023-05-21T06:24:48.170Z,23.45
2023-05-21T06:27:50.881Z,24.05
2023-05-21T06:30:58.104Z,24.33
2023-05-21T06:34:01.376Z,23.55
2023-05-21T06:37:03.223Z,24.52
2023-05-21T06:40:05.422Z,23.92
2023-05-21T06:43:07.357Z,22.90
2023-05-21T06:46:12.048Z,24.85
2023-05-21T06:49:15.235Z,24.48
2023-05-21T06:52:17.973Z,23.85
2023-05-21T06:55:19.703Z,24.65
2023-05-21T06:58:46.997Z,24.23
2023-05-21T07:04:53.726Z,23.02
2023-05-21T07:07:55.321Z,22.98
2023-05-21T07:10:56.924Z,23.75
2023-05-21T07:14:03.818Z,24.27
2023-05-21T07:17:07.876Z,25.83
2023-05-21T07:20:11.599Z,24.52
2023-05-21T07:23:16.098Z,23.60
2023-05-21T07:26:17.775Z,25.33
2023-05-21T07:29:19.865Z,21.20
2023-05-21T07:32:21.676Z,22.60
2023-05-21T07:35:23.452Z,22.65
2023-05-21T07:38:26.260Z,20.92
2023-05-21T07:41:28.192Z,24.08
2023-05-21T07:44:31.906Z,26.33
2023-05-21T07:47:33.651Z,25.92
2023-05-21T07:50:35.749Z,25.73
2023-05-21T07:53:37.787Z,26.55
2023-05-21T07:56:43.459Z,26.73
2023-05-21T07:59:55.240Z,24.40
2023-05-21T08:02:57.230Z,26.23
2023-05-21T08:06:00.643Z,26.33
2023-05-21T08:09:02.184Z,24.13
2023-05-21T08:12:04.442Z,23.70
2023-05-21T08:15:06.778Z,26.10
2023-05-21T08:18:12.609Z,25.40
2023-05-21T08:21:17.186Z,24.60
2023-05-21T08:24:18.964Z,24.83
2023-05-21T08:27:21.298Z,23.75
2023-05-21T08:30:23.007Z,24.98
2023-05-21T08:33:25.771Z,23.85
2023-05-21T08:36:27.404Z,27.08
2023-05-21T08:39:34.209Z,22.98
2023-05-21T08:42:51.138Z,23.20
2023-05-21T08:46:16.689Z,22.85
2023-05-21T08:49:25.750Z,22.98
2023-05-21T08:52:31.506Z,24.38
2023-05-21T08:55:33.483Z,23.15
2023-05-21T08:58:36.553Z,23.40
2023-05-21T09:01:42.347Z,23.30
2023-05-21T09:04:57.400Z,22.83
2023-05-21T09:08:46.700Z,22.63
2023-05-21T09:11:56.473Z,23.40
2023-05-21T09:15:00.231Z,21.63
2023-05-21T09:18:06.675Z,22.67
2023-05-21T09:21:31.481Z,22.05
2023-05-21T09:24:37.669Z,21.67
2023-05-21T09:27:40.604Z,22.40
2023-05-21T09:30:49.553Z,21.45
2023-05-21T09:33:51.258Z,20.52
2023-05-21T09:36:57.359Z,23.38
2023-05-21T09:39:59.983Z,22.67
2023-05-21T09:43:01.886Z,22.38
2023-05-21T09:46:03.712Z,23.70
2023-05-21T09:49:21.895Z,23.30
2023-05-21T09:52:25.338Z,23.23
2023-05-21T09:55:28.457Z,22.13
2023-05-21T09:58:30.095Z,22.13
2023-05-21T10:01:33.936Z,24.48
2023-05-21T10:04:35.831Z,23.17
2023-05-21T10:07:38.837Z,23.25
2023-05-21T10:10:43.767Z,23.90
2023-05-21T10:13:51.567Z,22.33
2023-05-21T10:16:54.523Z,22.35
2023-05-21T10:19:56.702Z,22.27
2023-05-21T10:22:59.021Z,22.92
2023-05-21T10:26:00.732Z,21.73
2023-05-21T10:29:02.820Z,23.55
2023-05-21T10:32:05.871Z,22.52
2023-05-21T10:35:09.111Z,21.17
2023-05-21T10:38:13.295Z,23.00
2023-05-21T10:41:20.025Z,22.63
2023-05-21T10:45:16.037Z,23.48
2023-05-21T10:48:44.334Z,21.98
2023-05-21T10:52:18.419Z,22.58
2023-05-21T10:55:47.169Z,21.77
2023-05-21T10:59:18.356Z,22.60
2023-05-21T11:02:20.970Z,23.95
2023-05-21T11:05:50.810Z,20.85
2023-05-21T11:08:55.951Z,23.08
2023-05-21T11:11:58.857Z,21.02
2023-05-21T11:15:00.632Z,21.65
2023-05-21T11:18:02.217Z,22.08
2023-05-21T11:21:10.172Z,22.42
2023-05-21T11:24:19.341Z,22.23
2023-05-21T11:27:41.714Z,21.98
2023-05-21T11:30:43.359Z,22.33
2023-05-21T11:33:47.638Z,21.00
2023-05-21T11:36:49.890Z,21.58
2023-05-21T11:39:51.809Z,20.95
2023-05-21T11:42:55.428Z,21.20
2023-05-21T11:45:57.295Z,21.75
2023-05-21T11:48:59.323Z,20.95
2023-05-21T11:52:01.486Z,20.63
2023-05-21T11:55:04.291Z,21.60
2023-05-21T11:58:08.621Z,20.55
2023-05-21T12:01:27.725Z,21.48
2023-05-21T12:04:30.439Z,22.60
2023-05-21T12:07:31.994Z,20.15
2023-05-21T12:10:33.504Z,21.65
2023-05-21T12:13:35.081Z,22.40
2023-05-21T12:16:37.349Z,22.55
2023-05-21T12:19:39.485Z,20.60
2023-05-21T12:22:42.613Z,21.83
2023-05-21T12:25:44.119Z,21.13
2023-05-21T12:28:45.791Z,21.80
2023-05-21T12:31:50.729Z,21.67
2023-05-21T12:34:54.579Z,22.98
2023-05-21T12:37:56.755Z,23.80
2023-05-21T12:41:07.433Z,21.70
2023-05-21T12:44:09.046Z,21.80
2023-05-21T12:47:11.712Z,22.00
2023-05-21T12:50:13.974Z,22.33
2023-05-21T12:53:15.640Z,21.35
2023-05-21T12:56:17.277Z,21.40
2023-05-21T12:59:18.847Z,21.98
2023-05-21T13:02:44.342Z,21.85
2023-05-21T13:05:46.739Z,20.88
2023-05-21T13:08:48.295Z,22.48
2023-05-21T13:11:49.848Z,21.88
2023-05-21T13:14:53.043Z,20.15
2023-05-21T13:17:56.745Z,21.30
2023-05-21T13:20:58.754Z,21.20
2023-05-21T13:24:00.265Z,20.88
2023-05-21T13:27:01.835Z,20.95
2023-05-21T13:30:03.838Z,20.70
2023-05-21T13:33:06.476Z,20.75
2023-05-21T13:36:08.168Z,20.63
2023-05-21T13:39:09.852Z,20.25
2023-05-21T13:42:11.445Z,20.25
2023-05-21T13:45:15.060Z,20.00
2023-05-21T13:48:16.871Z,20.30
2023-05-21T13:51:37.129Z,20.20
2023-05-21T13:54:40.499Z,19.25
2023-05-21T13:57:42.259Z,19.73
2023-05-21T14:00:43.773Z,18.73
2023-05-21T14:03:45.393Z,20.17
2023-05-21T14:06:47.770Z,18.33
2023-05-21T14:09:49.578Z,19.50
2023-05-21T14:12:51.564Z,18.83
2023-05-21T14:15:53.093Z,18.48
2023-05-21T14:18:55.447Z,19.35
2023-05-21T14:21:57.038Z,18.85
2023-05-21T14:24:58.602Z,18.50
2023-05-21T14:28:00.159Z,19.45
2023-05-21T14:31:01.719Z,18.65
2023-05-21T14:34:03.700Z,18.60
2023-05-21T14:37:05.502Z,17.98
2023-05-21T14:40:07.982Z,18.83
2023-05-21T14:43:09.608Z,17.38
2023-05-21T14:46:11.189Z,18.25
2023-05-21T14:49:13.234Z,18.27
2023-05-21T14:52:14.784Z,19.00
2023-05-21T14:55:18.337Z,17.25
2023-05-21T14:58:19.920Z,17.73
2023-05-21T15:01:21.580Z,18.40
2023-05-21T15:04:23.316Z,17.83
2023-05-21T15:07:24.825Z,17.30
2023-05-21T15:10:27.435Z,16.83
2023-05-21T15:13:29.057Z,16.75
2023-05-21T15:16:31.239Z,17.45
2023-05-21T15:19:32.965Z,18.80
2023-05-21T15:22:35.186Z,20.05
2023-05-21T15:25:36.909Z,19.48
2023-05-21T15:28:38.683Z,11.73
2023-05-21T15:31:40.346Z,9.75
2023-05-21T15:34:41.972Z,7.28
2023-05-21T15:37:45.304Z,7.15
2023-05-21T15:40:47.541Z,9.00
2023-05-21T15:43:49.236Z,6.47
2023-05-21T15:46:51.294Z,6.47
2023-05-21T15:49:52.830Z,6.15
2023-05-21T15:52:54.404Z,5.70
2023-05-21T15:55:56.674Z,6.85
2023-05-21T15:59:01.171Z,6.75
2023-05-21T16:02:02.756Z,6.35
2023-05-21T16:05:04.444Z,7.57
2023-05-21T16:08:06.148Z,7.82
2023-05-21T16:11:09.030Z,8.55
2023-05-21T16:14:11.493Z,8.07
2023-05-21T16:17:13.053Z,7.90
2023-05-21T16:20:14.738Z,8.80
2023-05-21T16:23:16.302Z,9.23
2023-05-21T16:26:17.906Z,9.00
2023-05-21T16:29:19.403Z,10.60
2023-05-21T16:32:21.256Z,10.55
2023-05-21T16:35:22.955Z,9.63
2023-05-21T16:38:24.456Z,9.52
2023-05-21T16:41:26.126Z,8.15
2023-05-21T16:44:27.615Z,9.05
2023-05-21T16:47:29.218Z,9.25
2023-05-21T16:50:30.840Z,9.02
2023-05-21T16:53:32.368Z,9.02
2023-05-21T16:56:33.940Z,7.70
2023-05-21T16:59:35.475Z,8.43
2023-05-21T17:02:38.242Z,7.68
2023-05-21T17:05:39.924Z,8.20
2023-05-21T17:08:42.428Z,7.43
2023-05-21T17:11:44.065Z,8.00
2023-05-21T17:14:45.699Z,7.88
2023-05-21T17:17:47.419Z,7.63
2023-05-21T17:20:49.066Z,7.75
2023-05-21T17:23:50.743Z,7.53
2023-05-21T17:26:53.301Z,9.32
2023-05-21T17:29:54.894Z,9.38
2023-05-21T17:32:58.179Z,8.88
2023-05-21T17:36:01.260Z,8.75
2023-05-21T17:39:03.073Z,8.75
2023-05-21T17:42:04.862Z,9.45
2023-05-21T17:45:07.127Z,8.80
2023-05-21T17:48:08.696Z,9.02
2023-05-21T17:51:11.042Z,9.88
2023-05-21T17:54:12.630Z,9.52
2023-05-21T17:57:16.009Z,9.13
2023-05-21T18:00:17.880Z,9.73
2023-05-21T18:03:19.368Z,9.27
2023-05-21T18:06:20.997Z,8.07
2023-05-21T18:09:22.798Z,7.85
2023-05-21T18:12:24.312Z,8.27
2023-05-21T18:15:25.868Z,7.38
2023-05-21T18:18:27.368Z,7.75
2023-05-21T18:21:28.882Z,8.52
2023-05-21T18:24:30.576Z,8.73
2023-05-21T18:27:32.123Z,8.35
2023-05-21T18:30:34.246Z,9.10
2023-05-21T18:33:35.877Z,9.13
2023-05-21T18:36:40.131Z,8.85
2023-05-21T18:39:41.713Z,8.05
2023-05-21T18:42:43.190Z,8.10
2023-05-21T18:45:45.305Z,8.82
2023-05-21T18:48:48.531Z,9.93
2023-05-21T18:51:50.563Z,9.13
2023-05-21T18:54:52.092Z,8.30
2023-05-21T18:57:55.559Z,7.78
2023-05-21T19:00:57.118Z,9.50
2023-05-21T19:03:58.690Z,9.65
2023-05-21T19:07:00.370Z,10.05
2023-05-21T19:10:02.445Z,10.18
2023-05-21T19:13:06.142Z,10.82
2023-05-21T19:19:12.745Z,8.25
2023-05-21T19:22:15.010Z,8.52
2023-05-21T19:25:16.629Z,8.40
2023-05-21T19:28:18.988Z,7.28
2023-05-21T19:31:21.442Z,7.80
2023-05-21T19:34:23.401Z,8.13
2023-05-21T19:37:24.944Z,8.52
2023-05-21T19:40:26.458Z,7.60
2023-05-21T19:43:28.245Z,8.18
2023-05-21T19:46:30.978Z,7.93
2023-05-21T19:49:32.577Z,7.70
2023-05-21T19:52:34.135Z,8.23
2023-05-21T19:55:37.391Z,7.40
2023-05-21T19:58:39.030Z,6.43
2023-05-21T20:01:43.257Z,8.65
2023-05-21T20:04:44.838Z,8.43
2023-05-21T20:07:46.509Z,7.68
2023-05-21T20:10:50.560Z,8.38
2023-05-21T20:13:53.620Z,8.35
2023-05-21T20:16:58.390Z,7.85
2023-05-21T20:20:01.256Z,8.68
2023-05-21T20:23:03.320Z,8.60
2023-05-21T20:26:04.926Z,7.45
2023-05-21T20:29:07.897Z,8.07
2023-05-21T20:32:09.402Z,7.93
2023-05-21T20:35:10.974Z,7.32
2023-05-21T20:38:12.693Z,7.90
2023-05-21T20:41:14.279Z,7.40
2023-05-21T20:44:15.964Z,7.00
2023-05-21T20:47:18.158Z,7.63
2023-05-21T20:50:21.635Z,7.70
2023-05-21T20:53:24.059Z,8.40
2023-05-21T20:56:40.035Z,8.65
2023-05-21T20:59:43.240Z,8.30
2023-05-21T21:02:45.105Z,7.22
2023-05-21T21:05:47.373Z,8.50
2023-05-21T21:08:50.170Z,9.20
2023-05-21T21:11:51.774Z,10.02
2023-05-21T21:14:53.630Z,10.85
2023-05-21T21:17:55.207Z,10.60
2023-05-21T21:20:57.024Z,10.35
2023-05-21T21:23:58.557Z,10.65
2023-05-21T21:27:00.192Z,10.27
2023-05-21T21:30:02.170Z,9.85
2023-05-21T21:33:03.851Z,9.07
2023-05-21T21:36:06.302Z,8.95
2023-05-21T21:39:07.891Z,8.82
2023-05-21T21:42:09.605Z,9.65
2023-05-21T21:45:11.410Z,8.85
2023-05-21T21:48:13.018Z,9.95
2023-05-21T21:51:15.572Z,9.32
2023-05-21T21:54:17.122Z,8.77
2023-05-21T21:57:18.599Z,10.00
2023-05-21T22:00:20.937Z,10.65
2023-05-21T22:03:22.532Z,10.68
2023-05-21T22:06:23.997Z,9.85
2023-05-21T22:09:25.533Z,10.32
2023-05-21T22:12:28.868Z,10.38
2023-05-21T22:15:32.166Z,9.90
2023-05-21T22:18:40.822Z,10.68
2023-05-21T22:21:43.209Z,10.95
2023-05-21T22:24:44.712Z,10.73
2023-05-21T22:27:46.234Z,12.10
2023-05-21T22:30:47.791Z,11.55
2023-05-21T22:33:49.288Z,10.48
2023-05-21T22:36:51.503Z,10.80
2023-05-21T22:39:53.114Z,10.02
2023-05-21T22:42:54.654Z,10.65
2023-05-21T22:45:56.130Z,10.40
2023-05-21T22:48:58.117Z,11.40
2023-05-21T22:52:05.037Z,12.20
2023-05-21T22:55:07.845Z,11.52
2023-05-21T22:58:09.379Z,10.95
2023-05-21T23:01:11.172Z,10.90
2023-05-21T23:04:13.972Z,12.02
2023-05-21T23:07:15.977Z,11.75
2023-05-21T23:10:17.562Z,12.32
2023-05-21T23:13:19.078Z,11.73
2023-05-21T23:16:22.632Z,12.23
2023-05-21T23:19:24.253Z,12.60
2023-05-21T23:22:26.252Z,13.10
2023-05-21T23:25:27.748Z,12.68
2023-05-21T23:28:29.255Z,12.10
2023-05-21T23:31:31.569Z,12.05
2023-05-21T23:34:33.643Z,10.93
2023-05-21T23:37:35.171Z,11.27
2023-05-21T23:40:37.193Z,11.73
2023-05-21T23:43:38.949Z,13.68
2023-05-21T23:46:40.523Z,11.95
2023-05-21T23:49:42.062Z,11.18
2023-05-21T23:52:43.848Z,11.45
2023-05-21T23:55:45.475Z,13.98
2023-05-21T23:58:46.959Z,13.10
